Time,TemperatureF,DewpointF,PressureIn,WindDirection,WindDirectionDegrees,WindSpeedMPH,WindSpeedGustMPH,Humidity,HourlyPrecipIn,Conditions,Clouds,dailyrainin,SoftwareType,DateUTC
2013-11-26 00:07:00,28.4,27.9,30.09,ESE,112,0.0,-999.0,98,-99.99,,,0.00,Acu-Link.com,2013-11-26 08:07:00,
2013-11-26 00:22:00,28.4,27.9,30.09,NE,45,0.0,-999.0,98,-99.99,,,0.00,Acu-Link.com,2013-11-26 08:22:00,
2013-11-26 00:37:00,28.4,27.9,30.09,NE,45,0.0,-999.0,98,-99.99,,,0.00,Acu-Link.com,2013-11-26 08:37:00,
2013-11-26 00:53:00,28.4,27.9,30.09,NE,45,0.0,-999.0,98,-99.99,,,0.00,Acu-Link.com,2013-11-26 08:53:00,
2013-11-26 01:08:00,28.4,27.9,30.09,SW,225,0.0,-999.0,98,-99.99,,,0.00,Acu-Link.com,2013-11-26 09:08:00,
2013-11-26 01:23:00,28.4,27.9,30.09,ENE,67,0.0,-999.0,98,-99.99,,,0.00,Acu-Link.com,2013-11-26 09:23:00,
2013-11-26 01:38:00,28.4,27.9,30.09,ENE,67,0.0,-999.0,98,-99.99,,,0.00,Acu-Link.com,2013-11-26 09:38:00,
2013-11-26 01:54:00,28.4,27.9,30.08,East,90,0.0,-999.0,98,-99.99,,,0.00,Acu-Link.com,2013-11-26 09:54:00,
2013-11-26 02:09:00,28.4,27.9,30.08,SW,225,0.0,-999.0,98,-99.99,,,0.00,Acu-Link.com,2013-11-26 10:09:00,
2013-11-26 02:24:00,28.4,27.9,30.08,ESE,112,0.0,-999.0,98,-99.99,,,0.00,Acu-Link.com,2013-11-26 10:24:00,
2013-11-26 02:39:00,26.6,26.1,30.08,East,90,0.0,-999.0,98,-99.99,,,0.00,Acu-Link.com,2013-11-26 10:39:00,
2013-11-26 02:55:00,26.6,26.1,30.08,West,270,0.0,-999.0,98,-99.99,,,0.00,Acu-Link.com,2013-11-26 10:55:00,
2013-11-26 03:10:00,26.6,26.1,30.07,ESE,112,0.0,-999.0,98,-99.99,,,0.00,Acu-Link.com,2013-11-26 11:10:00,
2013-11-26 03:25:00,28.4,27.9,30.08,ESE,112,0.0,-999.0,98,-99.99,,,0.00,Acu-Link.com,2013-11-26 11:25:00,
2013-11-26 03:40:00,28.4,27.9,30.07,SW,225,0.0,-999.0,98,-99.99,,,0.00,Acu-Link.com,2013-11-26 11:40:00,
2013-11-26 03:56:00,26.6,26.1,30.06,East,90,0.0,-999.0,98,-99.99,,,0.00,Acu-Link.com,2013-11-26 11:56:00,
2013-11-26 04:11:00,26.6,26.1,30.06,NE,45,0.0,-999.0,98,-99.99,,,0.00,Acu-Link.com,2013-11-26 12:11:00,
2013-11-26 04:26:00,26.6,26.1,30.06,SE,135,0.0,-999.0,98,-99.99,,,0.00,Acu-Link.com,2013-11-26 12:26:00,
2013-11-26 04:41:00,26.6,26.1,30.05,SSE,157,0.0,-999.0,98,-99.99,,,0.00,Acu-Link.com,2013-11-26 12:41:00,
2013-11-26 04:56:00,26.6,26.1,30.05,East,90,0.0,-999.0,98,-99.99,,,0.00,Acu-Link.com,2013-11-26 12:56:00,
2013-11-26 05:11:00,26.6,26.1,30.04,SE,135,0.0,-999.0,98,-99.99,,,0.00,Acu-Link.com,2013-11-26 13:11:00,
2013-11-26 05:26:00,26.6,26.1,30.04,WSW,247,0.0,-999.0,98,-99.99,,,0.00,Acu-Link.com,2013-11-26 13:26:00,
2013-11-26 05:41:00,26.6,26.1,30.05,ESE,112,0.0,-999.0,98,-99.99,,,0.00,Acu-Link.com,2013-11-26 13:41:00,
2013-11-26 05:57:00,26.6,26.1,30.04,WNW,292,0.0,-999.0,98,-99.99,,,0.00,Acu-Link.com,2013-11-26 13:57:00,
2013-11-26 06:12:00,26.6,26.1,30.04,East,90,0.0,-999.0,98,-99.99,,,0.00,Acu-Link.com,2013-11-26 14:12:00,
2013-11-26 06:27:00,26.6,26.1,30.03,ESE,112,0.0,-999.0,98,-99.99,,,0.00,Acu-Link.com,2013-11-26 14:27:00,
2013-11-26 06:42:00,26.6,26.1,30.03,East,90,0.0,-999.0,98,-99.99,,,0.00,Acu-Link.com,2013-11-26 14:42:00,
2013-11-26 06:57:00,26.6,26.1,30.03,ESE,112,0.0,-999.0,98,-99.99,,,0.00,Acu-Link.com,2013-11-26 14:57:00,
2013-11-26 07:12:00,26.6,26.1,30.03,East,90,0.0,-999.0,98,-99.99,,,0.00,Acu-Link.com,2013-11-26 15:12:00,
2013-11-26 07:27:00,26.6,26.1,30.02,SE,135,0.0,-999.0,98,-99.99,,,0.00,Acu-Link.com,2013-11-26 15:27:00,
2013-11-26 07:42:00,26.6,26.1,30.03,East,90,0.0,-999.0,98,-99.99,,,0.00,Acu-Link.com,2013-11-26 15:42:00,
2013-11-26 07:57:00,26.6,26.1,30.03,ENE,67,0.0,-999.0,98,-99.99,,,0.00,Acu-Link.com,2013-11-26 15:57:00,
2013-11-26 08:13:00,26.6,26.1,30.02,East,90,0.0,-999.0,98,-99.99,,,0.00,Acu-Link.com,2013-11-26 16:13:00,
2013-11-26 08:28:00,26.6,26.1,30.02,SE,135,0.0,-999.0,98,-99.99,,,0.00,Acu-Link.com,2013-11-26 16:28:00,
2013-11-26 08:43:00,28.4,27.9,30.02,SE,135,0.0,-999.0,98,-99.99,,,0.00,Acu-Link.com,2013-11-26 16:43:00,
2013-11-26 08:58:00,28.4,27.9,30.02,SE,135,0.0,-999.0,98,-99.99,,,0.00,Acu-Link.com,2013-11-26 16:58:00,
2013-11-26 09:13:00,28.4,27.9,30.02,West,270,0.0,-999.0,98,-99.99,,,0.00,Acu-Link.com,2013-11-26 17:13:00,
2013-11-26 09:28:00,28.4,27.9,30.02,NE,45,0.0,-999.0,98,-99.99,,,0.00,Acu-Link.com,2013-11-26 17:28:00,
2013-11-26 09:43:00,30.2,29.7,30.01,SSW,202,0.0,-999.0,98,-99.99,,,0.00,Acu-Link.com,2013-11-26 17:43:00,
2013-11-26 09:58:00,30.2,27.9,30.01,WSW,247,0.0,-999.0,91,-99.99,,,0.00,Acu-Link.com,2013-11-26 17:58:00,
2013-11-26 10:13:00,32.0,29.1,30.01,WSW,247,0.0,-999.0,89,-99.99,,,0.00,Acu-Link.com,2013-11-26 18:13:00,
2013-11-26 10:29:00,32.0,29.1,30.01,WSW,247,0.0,-999.0,89,-99.99,,,0.00,Acu-Link.com,2013-11-26 18:29:00,
2013-11-26 10:44:00,32.0,28.9,30.00,SW,225,0.0,-999.0,88,-99.99,,,0.00,Acu-Link.com,2013-11-26 18:44:00,
2013-11-26 10:59:00,33.8,29.8,30.00,West,270,0.0,-999.0,85,-99.99,,,0.00,Acu-Link.com,2013-11-26 18:59:00,
2013-11-26 11:14:00,33.8,29.5,30.00,SSW,202,0.0,-999.0,84,-99.99,,,0.00,Acu-Link.com,2013-11-26 19:14:00,
2013-11-26 11:29:00,33.8,28.9,30.00,SSW,202,0.0,-999.0,82,-99.99,,,0.00,Acu-Link.com,2013-11-26 19:29:00,
2013-11-26 11:44:00,35.6,30.1,29.99,SE,135,0.0,-999.0,80,-99.99,,,0.00,Acu-Link.com,2013-11-26 19:44:00,
2013-11-26 12:00:00,35.6,30.7,29.99,SSW,202,0.0,-999.0,82,-99.99,,,0.00,Acu-Link.com,2013-11-26 20:00:00,
2013-11-26 12:15:00,35.6,29.7,29.99,WSW,247,0.0,-999.0,79,-99.99,,,0.00,Acu-Link.com,2013-11-26 20:15:00,
2013-11-26 12:30:00,35.6,29.7,29.99,ESE,112,0.0,-999.0,79,-99.99,,,0.00,Acu-Link.com,2013-11-26 20:30:00,
2013-11-26 12:45:00,33.8,28.3,29.97,ENE,67,0.0,-999.0,80,-99.99,,,0.00,Acu-Link.com,2013-11-26 20:45:00,
2013-11-26 13:00:00,33.8,28.6,29.97,SE,135,0.0,-999.0,81,-99.99,,,0.00,Acu-Link.com,2013-11-26 21:00:00,
2013-11-26 13:16:00,33.8,28.6,29.96,SSW,202,0.0,-999.0,81,-99.99,,,0.00,Acu-Link.com,2013-11-26 21:16:00,
2013-11-26 13:31:00,35.6,30.4,29.96,NE,45,0.0,-999.0,81,-99.99,,,0.00,Acu-Link.com,2013-11-26 21:31:00,
2013-11-26 13:46:00,33.8,28.6,29.96,SSW,202,0.0,-999.0,81,-99.99,,,0.00,Acu-Link.com,2013-11-26 21:46:00,
2013-11-26 14:01:00,33.8,28.9,29.96,South,180,0.0,-999.0,82,-99.99,,,0.00,Acu-Link.com,2013-11-26 22:01:00,
2013-11-26 14:16:00,33.8,29.2,29.96,NE,45,0.0,-999.0,83,-99.99,,,0.00,Acu-Link.com,2013-11-26 22:16:00,
2013-11-26 14:31:00,35.6,30.7,29.95,NE,45,0.0,-999.0,82,-99.99,,,0.00,Acu-Link.com,2013-11-26 22:31:00,
2013-11-26 14:47:00,33.8,29.2,29.95,East,90,0.0,-999.0,83,-99.99,,,0.00,Acu-Link.com,2013-11-26 22:47:00,
2013-11-26 15:02:00,33.8,28.9,29.95,East,90,0.0,-999.0,82,-99.99,,,0.00,Acu-Link.com,2013-11-26 23:02:00,
2013-11-26 15:17:00,33.8,29.2,29.94,ESE,112,0.0,-999.0,83,-99.99,,,0.00,Acu-Link.com,2013-11-26 23:17:00,
2013-11-26 15:32:00,32.0,27.7,29.95,SW,225,0.0,-999.0,84,-99.99,,,0.00,Acu-Link.com,2013-11-26 23:32:00,
2013-11-26 15:47:00,32.0,28.0,29.96,ENE,67,0.0,-999.0,85,-99.99,,,0.00,Acu-Link.com,2013-11-26 23:47:00,
2013-11-26 16:03:00,32.0,28.6,29.96,ESE,112,0.0,-999.0,87,-99.99,,,0.00,Acu-Link.com,2013-11-27 00:03:00,
2013-11-26 16:18:00,30.2,27.4,29.96,ENE,67,0.0,-999.0,89,-99.99,,,0.00,Acu-Link.com,2013-11-27 00:18:00,
2013-11-26 16:33:00,30.2,27.4,29.95,East,90,0.0,-999.0,89,-99.99,,,0.00,Acu-Link.com,2013-11-27 00:33:00,
2013-11-26 16:48:00,28.4,25.8,29.96,East,90,0.0,-999.0,90,-99.99,,,0.00,Acu-Link.com,2013-11-27 00:48:00,
2013-11-26 17:03:00,28.4,27.7,29.95,East,90,0.0,-999.0,97,-99.99,,,0.00,Acu-Link.com,2013-11-27 01:03:00,
2013-11-26 17:18:00,28.4,27.9,29.95,ESE,112,0.0,-999.0,98,-99.99,,,0.00,Acu-Link.com,2013-11-27 01:18:00,
2013-11-26 17:33:00,26.6,26.1,29.95,ESE,112,0.0,-999.0,98,-99.99,,,0.00,Acu-Link.com,2013-11-27 01:33:00,
2013-11-26 17:48:00,28.4,27.9,29.95,ESE,112,0.0,-999.0,98,-99.99,,,0.00,Acu-Link.com,2013-11-27 01:48:00,
2013-11-26 18:04:00,28.4,27.9,29.95,East,90,0.0,-999.0,98,-99.99,,,0.00,Acu-Link.com,2013-11-27 02:04:00,
2013-11-26 18:19:00,26.6,26.1,29.95,East,90,0.0,-999.0,98,-99.99,,,0.00,Acu-Link.com,2013-11-27 02:19:00,
2013-11-26 18:34:00,26.6,26.1,29.95,East,90,0.0,-999.0,98,-99.99,,,0.00,Acu-Link.com,2013-11-27 02:34:00,
2013-11-26 18:49:00,26.6,26.1,29.95,East,90,0.0,-999.0,98,-99.99,,,0.00,Acu-Link.com,2013-11-27 02:49:00,
2013-11-26 19:04:00,26.6,26.1,29.95,ENE,67,0.0,-999.0,98,-99.99,,,0.00,Acu-Link.com,2013-11-27 03:04:00,
2013-11-26 19:20:00,24.8,24.3,29.95,NE,45,0.0,-999.0,98,-99.99,,,0.00,Acu-Link.com,2013-11-27 03:20:00,
2013-11-26 19:35:00,24.8,24.3,29.96,NE,45,0.0,-999.0,98,-99.99,,,0.00,Acu-Link.com,2013-11-27 03:35:00,
2013-11-26 19:50:00,24.8,24.3,29.96,NE,45,0.0,-999.0,98,-99.99,,,0.00,Acu-Link.com,2013-11-27 03:50:00,
2013-11-26 20:06:00,23.0,22.5,29.96,East,90,0.0,-999.0,98,-99.99,,,0.00,Acu-Link.com,2013-11-27 04:06:00,
2013-11-26 20:21:00,24.8,24.3,29.97,East,90,0.0,-999.0,98,-99.99,,,0.00,Acu-Link.com,2013-11-27 04:21:00,
2013-11-26 20:36:00,24.8,24.3,29.97,ENE,67,0.0,-999.0,98,-99.99,,,0.00,Acu-Link.com,2013-11-27 04:36:00,
2013-11-26 20:51:00,23.0,22.5,29.97,SSE,157,0.0,-999.0,98,-99.99,,,0.00,Acu-Link.com,2013-11-27 04:51:00,
2013-11-26 21:06:00,23.0,22.5,29.97,ESE,112,0.0,-999.0,98,-99.99,,,0.00,Acu-Link.com,2013-11-27 05:06:00,
2013-11-26 21:21:00,23.0,22.5,29.97,SSE,157,0.0,-999.0,98,-99.99,,,0.00,Acu-Link.com,2013-11-27 05:21:00,
2013-11-26 21:36:00,23.0,22.5,29.96,ESE,112,0.0,-999.0,98,-99.99,,,0.00,Acu-Link.com,2013-11-27 05:36:00,
2013-11-26 21:52:00,23.0,22.5,29.96,South,180,0.0,-999.0,98,-99.99,,,0.00,Acu-Link.com,2013-11-27 05:52:00,
2013-11-26 22:07:00,23.0,22.5,29.97,NNE,22,0.0,-999.0,98,-99.99,,,0.00,Acu-Link.com,2013-11-27 06:07:00,
2013-11-26 22:22:00,21.2,20.7,29.99,East,90,0.0,-999.0,98,-99.99,,,0.00,Acu-Link.com,2013-11-27 06:22:00,
2013-11-26 22:37:00,23.0,22.5,29.98,East,90,0.0,-999.0,98,-99.99,,,0.00,Acu-Link.com,2013-11-27 06:37:00,
2013-11-26 22:52:00,23.0,22.5,29.98,SSW,202,0.0,-999.0,98,-99.99,,,0.00,Acu-Link.com,2013-11-27 06:52:00,
2013-11-26 23:08:00,23.0,22.5,29.99,SSE,157,0.0,-999.0,98,-99.99,,,0.00,Acu-Link.com,2013-11-27 07:08:00,
2013-11-26 23:23:00,23.0,22.5,29.99,SSE,157,0.0,-999.0,98,-99.99,,,0.00,Acu-Link.com,2013-11-27 07:23:00,
2013-11-26 23:38:00,23.0,22.5,29.98,SSW,202,0.0,-999.0,98,-99.99,,,0.00,Acu-Link.com,2013-11-27 07:38:00,
2013-11-26 23:53:00,23.0,22.5,29.99,ESE,112,0.0,-999.0,98,-99.99,,,0.00,Acu-Link.com,2013-11-27 07:53:00,